sensor_id;sensor_type;location;lat;lon;timestamp;pressure;altitude;pressure_sealevel;temperature;humidity
15193;BME280;7697;51.630;7.484;2022-11-15T00:03:45;100219.06;;;10.54;86.12
15193;BME280;7697;51.630;7.484;2022-11-15T00:08:47;100207.84;;;10.59;85.94
15193;BME280;7697;51.630;7.484;2022-11-15T00:13:48;100209.44;;;10.66;85.99
15193;BME280;7697;51.630;7.484;2022-11-15T00:18:51;100209.25;;;10.68;86.66
15193;BME280;7697;51.630;7.484;2022-11-15T00:23:53;100197.63;;;10.69;86.69
15193;BME280;7697;51.630;7.484;2022-11-15T00:28:55;100196.19;;;10.73;87.11
15193;BME280;7697;51.630;7.484;2022-11-15T00:33:58;100191.28;;;10.76;87.59
15193;BME280;7697;51.630;7.484;2022-11-15T00:39:00;100192.50;;;10.80;87.95
15193;BME280;7697;51.630;7.484;2022-11-15T00:44:02;100187.56;;;10.84;88.26
15193;BME280;7697;51.630;7.484;2022-11-15T00:49:05;100190.41;;;10.89;88.55
15193;BME280;7697;51.630;7.484;2022-11-15T00:54:07;100185.09;;;10.96;88.44
15193;BME280;7697;51.630;7.484;2022-11-15T00:59:08;100184.47;;;11.00;89.18
15193;BME280;7697;51.630;7.484;2022-11-15T01:04:11;100175.88;;;11.05;89.60
15193;BME280;7697;51.630;7.484;2022-11-15T01:09:13;100180.53;;;11.09;89.97
15193;BME280;7697;51.630;7.484;2022-11-15T01:14:15;100168.28;;;11.15;89.87
15193;BME280;7697;51.630;7.484;2022-11-15T01:19:18;100175.56;;;11.19;90.00
15193;BME280;7697;51.630;7.484;2022-11-15T01:24:20;100171.06;;;11.26;90.35
15193;BME280;7697;51.630;7.484;2022-11-15T01:29:21;100170.19;;;11.33;90.84
15193;BME280;7697;51.630;7.484;2022-11-15T01:34:24;100181.16;;;11.43;90.42
15193;BME280;7697;51.630;7.484;2022-11-15T01:39:26;100173.34;;;11.48;90.43
15193;BME280;7697;51.630;7.484;2022-11-15T01:44:38;100161.31;;;11.52;90.83
15193;BME280;7697;51.630;7.484;2022-11-15T01:49:47;100159.56;;;11.64;91.61
15193;BME280;7697;51.630;7.484;2022-11-15T01:54:55;100155.59;;;11.80;92.75
15193;BME280;7697;51.630;7.484;2022-11-15T01:59:59;100149.34;;;11.92;92.72
15193;BME280;7697;51.630;7.484;2022-11-15T02:05:03;100137.41;;;12.01;92.74
15193;BME280;7697;51.630;7.484;2022-11-15T02:10:08;100134.84;;;12.13;93.31
15193;BME280;7697;51.630;7.484;2022-11-15T02:15:11;100131.91;;;12.21;93.33
15193;BME280;7697;51.630;7.484;2022-11-15T02:20:39;100130.59;;;12.30;94.13
15193;BME280;7697;51.630;7.484;2022-11-15T02:25:57;100122.69;;;12.42;93.64
15193;BME280;7697;51.630;7.484;2022-11-15T02:31:11;100135.69;;;12.50;93.43
15193;BME280;7697;51.630;7.484;2022-11-15T02:36:22;100126.97;;;12.61;93.42
15193;BME280;7697;51.630;7.484;2022-11-15T02:41:33;100121.56;;;12.68;93.67
15193;BME280;7697;51.630;7.484;2022-11-15T02:46:41;100119.41;;;12.76;93.55
15193;BME280;7697;51.630;7.484;2022-11-15T02:52:03;100112.38;;;12.82;93.63
15193;BME280;7697;51.630;7.484;2022-11-15T02:57:07;100117.16;;;12.92;93.98
15193;BME280;7697;51.630;7.484;2022-11-15T03:02:27;100118.88;;;12.98;93.56
15193;BME280;7697;51.630;7.484;2022-11-15T03:07:39;100122.03;;;13.06;93.64
15193;BME280;7697;51.630;7.484;2022-11-15T03:12:48;100107.84;;;13.12;93.89
15193;BME280;7697;51.630;7.484;2022-11-15T03:17:57;100110.31;;;13.14;93.25
15193;BME280;7697;51.630;7.484;2022-11-15T03:23:04;100115.97;;;13.18;93.73
15193;BME280;7697;51.630;7.484;2022-11-15T03:28:09;100120.03;;;13.20;93.33
15193;BME280;7697;51.630;7.484;2022-11-15T03:33:13;100123.50;;;13.21;93.26
15193;BME280;7697;51.630;7.484;2022-11-15T03:38:19;100121.06;;;13.19;93.60
15193;BME280;7697;51.630;7.484;2022-11-15T03:43:30;100117.81;;;13.17;93.64
15193;BME280;7697;51.630;7.484;2022-11-15T03:48:41;100117.38;;;13.20;93.66
15193;BME280;7697;51.630;7.484;2022-11-15T03:53:45;100116.34;;;13.21;93.68
15193;BME280;7697;51.630;7.484;2022-11-15T03:58:47;100107.78;;;13.19;93.97
15193;BME280;7697;51.630;7.484;2022-11-15T04:03:50;100099.13;;;13.24;93.98
15193;BME280;7697;51.630;7.484;2022-11-15T04:08:52;100103.38;;;13.25;94.49
15193;BME280;7697;51.630;7.484;2022-11-15T04:13:53;100096.22;;;13.25;93.72
15193;BME280;7697;51.630;7.484;2022-11-15T04:18:56;100098.66;;;13.27;94.07
15193;BME280;7697;51.630;7.484;2022-11-15T04:24:12;100103.75;;;13.28;93.70
15193;BME280;7697;51.630;7.484;2022-11-15T04:29:13;100092.53;;;13.26;94.12
15193;BME280;7697;51.630;7.484;2022-11-15T04:34:34;100087.22;;;13.26;93.93
15193;BME280;7697;51.630;7.484;2022-11-15T04:39:35;100094.97;;;13.28;94.12
15193;BME280;7697;51.630;7.484;2022-11-15T04:44:37;100094.59;;;13.24;94.31
15193;BME280;7697;51.630;7.484;2022-11-15T04:49:40;100098.88;;;13.25;94.51
15193;BME280;7697;51.630;7.484;2022-11-15T04:54:44;100091.94;;;13.24;94.30
15193;BME280;7697;51.630;7.484;2022-11-15T04:59:46;100096.81;;;13.27;94.58
15193;BME280;7697;51.630;7.484;2022-11-15T05:04:49;100084.31;;;13.28;94.77
15193;BME280;7697;51.630;7.484;2022-11-15T05:09:51;100088.97;;;13.32;94.74
15193;BME280;7697;51.630;7.484;2022-11-15T05:14:52;100088.50;;;13.35;94.80
15193;BME280;7697;51.630;7.484;2022-11-15T05:19:55;100088.84;;;13.39;94.78
15193;BME280;7697;51.630;7.484;2022-11-15T05:24:57;100090.25;;;13.41;94.98
15193;BME280;7697;51.630;7.484;2022-11-15T05:29:59;100078.91;;;13.46;94.52
15193;BME280;7697;51.630;7.484;2022-11-15T05:35:02;100067.81;;;13.49;94.52
15193;BME280;7697;51.630;7.484;2022-11-15T05:40:08;100068.97;;;13.53;94.51
15193;BME280;7697;51.630;7.484;2022-11-15T05:45:09;100075.69;;;13.56;94.00
15193;BME280;7697;51.630;7.484;2022-11-15T05:50:14;100067.34;;;13.52;94.01
15193;BME280;7697;51.630;7.484;2022-11-15T05:55:17;100062.84;;;13.52;94.13
15193;BME280;7697;51.630;7.484;2022-11-15T06:00:19;100059.72;;;13.56;94.48
15193;BME280;7697;51.630;7.484;2022-11-15T06:05:22;100065.63;;;13.58;94.59
15193;BME280;7697;51.630;7.484;2022-11-15T06:10:24;100060.06;;;13.59;94.25
15193;BME280;7697;51.630;7.484;2022-11-15T06:15:26;100060.41;;;13.63;94.55
15193;BME280;7697;51.630;7.484;2022-11-15T06:20:29;100071.63;;;13.65;94.66
15193;BME280;7697;51.630;7.484;2022-11-15T06:25:31;100082.06;;;13.66;94.40
15193;BME280;7697;51.630;7.484;2022-11-15T06:30:33;100087.72;;;13.70;94.46
15193;BME280;7697;51.630;7.484;2022-11-15T06:35:37;100093.97;;;13.75;94.31
15193;BME280;7697;51.630;7.484;2022-11-15T06:40:39;100100.91;;;13.76;94.79
15193;BME280;7697;51.630;7.484;2022-11-15T06:45:40;100100.66;;;13.78;94.50
15193;BME280;7697;51.630;7.484;2022-11-15T06:50:50;100096.75;;;13.80;94.58
15193;BME280;7697;51.630;7.484;2022-11-15T06:55:52;100098.59;;;13.80;95.00
15193;BME280;7697;51.630;7.484;2022-11-15T07:00:58;100105.66;;;13.86;94.43
15193;BME280;7697;51.630;7.484;2022-11-15T07:06:01;100114.78;;;13.90;94.12
15193;BME280;7697;51.630;7.484;2022-11-15T07:11:05;100117.59;;;13.95;93.93
15193;BME280;7697;51.630;7.484;2022-11-15T07:16:09;100118.28;;;14.02;93.27
15193;BME280;7697;51.630;7.484;2022-11-15T07:21:12;100119.63;;;14.05;93.17
15193;BME280;7697;51.630;7.484;2022-11-15T07:26:14;100123.47;;;14.09;92.85
15193;BME280;7697;51.630;7.484;2022-11-15T07:31:16;100129.81;;;14.08;92.82
15193;BME280;7697;51.630;7.484;2022-11-15T07:36:19;100133.88;;;14.10;92.43
15193;BME280;7697;51.630;7.484;2022-11-15T07:41:20;100140.59;;;14.13;91.77
15193;BME280;7697;51.630;7.484;2022-11-15T07:46:22;100144.19;;;14.18;91.50
15193;BME280;7697;51.630;7.484;2022-11-15T07:51:25;100145.66;;;14.26;90.28
15193;BME280;7697;51.630;7.484;2022-11-15T07:56:27;100142.78;;;14.27;89.81
15193;BME280;7697;51.630;7.484;2022-11-15T08:01:28;100147.06;;;14.28;89.81
15193;BME280;7697;51.630;7.484;2022-11-15T08:06:31;100148.47;;;14.31;89.39
15193;BME280;7697;51.630;7.484;2022-11-15T08:11:33;100151.91;;;14.32;88.65
15193;BME280;7697;51.630;7.484;2022-11-15T08:16:35;100148.19;;;14.33;87.95
15193;BME280;7697;51.630;7.484;2022-11-15T08:21:38;100154.38;;;14.45;87.32
15193;BME280;7697;51.630;7.484;2022-11-15T08:26:39;100149.13;;;14.50;87.58
15193;BME280;7697;51.630;7.484;2022-11-15T08:31:42;100136.81;;;14.60;86.45
15193;BME280;7697;51.630;7.484;2022-11-15T08:36:45;100133.94;;;14.62;86.33
15193;BME280;7697;51.630;7.484;2022-11-15T08:41:46;100138.31;;;14.68;86.45
15193;BME280;7697;51.630;7.484;2022-11-15T08:46:48;100144.31;;;14.75;85.10
15193;BME280;7697;51.630;7.484;2022-11-15T08:51:51;100145.94;;;14.76;84.33
15193;BME280;7697;51.630;7.484;2022-11-15T08:56:53;100138.38;;;14.85;83.81
15193;BME280;7697;51.630;7.484;2022-11-15T09:01:55;100130.56;;;14.95;83.35
15193;BME280;7697;51.630;7.484;2022-11-15T09:06:58;100134.72;;;15.02;82.94
15193;BME280;7697;51.630;7.484;2022-11-15T09:11:59;100134.88;;;15.13;80.98
15193;BME280;7697;51.630;7.484;2022-11-15T09:17:01;100143.78;;;15.18;79.86
15193;BME280;7697;51.630;7.484;2022-11-15T09:22:07;100126.81;;;15.24;80.16
15193;BME280;7697;51.630;7.484;2022-11-15T09:27:09;100130.75;;;15.22;79.22
15193;BME280;7697;51.630;7.484;2022-11-15T09:32:10;100123.25;;;15.19;79.31
15193;BME280;7697;51.630;7.484;2022-11-15T09:37:14;100130.88;;;15.27;79.42
15193;BME280;7697;51.630;7.484;2022-11-15T09:42:28;100126.75;;;15.36;78.54
15193;BME280;7697;51.630;7.484;2022-11-15T09:47:46;100121.00;;;15.44;77.75
15193;BME280;7697;51.630;7.484;2022-11-15T09:52:52;100119.94;;;15.57;77.47
15193;BME280;7697;51.630;7.484;2022-11-15T09:57:57;100120.81;;;15.62;75.87
15193;BME280;7697;51.630;7.484;2022-11-15T10:03:09;100121.44;;;15.69;76.71
15193;BME280;7697;51.630;7.484;2022-11-15T10:08:30;100114.31;;;15.92;74.58
15193;BME280;7697;51.630;7.484;2022-11-15T10:13:36;100115.47;;;16.18;73.44
15193;BME280;7697;51.630;7.484;2022-11-15T10:18:50;100111.34;;;16.10;72.28
15193;BME280;7697;51.630;7.484;2022-11-15T10:23:56;100095.06;;;16.11;72.78
15193;BME280;7697;51.630;7.484;2022-11-15T10:28:57;100080.97;;;16.16;71.74
15193;BME280;7697;51.630;7.484;2022-11-15T10:34:10;100078.34;;;16.21;70.53
15193;BME280;7697;51.630;7.484;2022-11-15T10:39:15;100068.91;;;16.35;70.76
15193;BME280;7697;51.630;7.484;2022-11-15T10:44:25;100067.09;;;16.41;70.17
15193;BME280;7697;51.630;7.484;2022-11-15T10:49:28;100055.69;;;16.45;69.49
15193;BME280;7697;51.630;7.484;2022-11-15T10:54:34;100048.59;;;16.34;68.19
15193;BME280;7697;51.630;7.484;2022-11-15T10:59:37;100042.69;;;16.32;68.35
15193;BME280;7697;51.630;7.484;2022-11-15T11:04:49;100036.53;;;16.32;68.08
15193;BME280;7697;51.630;7.484;2022-11-15T11:09:59;100032.91;;;16.43;68.89
15193;BME280;7697;51.630;7.484;2022-11-15T11:15:09;100030.00;;;16.44;68.13
15193;BME280;7697;51.630;7.484;2022-11-15T11:20:19;100020.28;;;16.38;68.16
15193;BME280;7697;51.630;7.484;2022-11-15T11:25:30;100019.59;;;16.48;68.22
15193;BME280;7697;51.630;7.484;2022-11-15T11:30:43;100014.81;;;16.50;67.53
15193;BME280;7697;51.630;7.484;2022-11-15T11:35:56;99997.09;;;16.44;65.75
15193;BME280;7697;51.630;7.484;2022-11-15T11:41:36;100001.03;;;16.36;65.49
15193;BME280;7697;51.630;7.484;2022-11-15T11:46:49;99998.44;;;16.46;65.25
15193;BME280;7697;51.630;7.484;2022-11-15T11:51:55;99979.69;;;16.41;64.46
15193;BME280;7697;51.630;7.484;2022-11-15T11:57:03;99983.50;;;16.45;63.47
15193;BME280;7697;51.630;7.484;2022-11-15T12:02:14;99963.00;;;16.56;62.32
15193;BME280;7697;51.630;7.484;2022-11-15T12:07:20;99965.03;;;16.71;62.59
15193;BME280;7697;51.630;7.484;2022-11-15T12:12:31;99957.81;;;17.03;62.41
15193;BME280;7697;51.630;7.484;2022-11-15T12:17:38;99952.19;;;17.47;61.63
15193;BME280;7697;51.630;7.484;2022-11-15T12:22:48;99956.16;;;17.86;59.45
15193;BME280;7697;51.630;7.484;2022-11-15T12:28:07;99950.84;;;17.96;58.30
15193;BME280;7697;51.630;7.484;2022-11-15T12:33:34;99955.38;;;17.96;55.81
15193;BME280;7697;51.630;7.484;2022-11-15T12:38:54;99955.66;;;17.99;55.05
15193;BME280;7697;51.630;7.484;2022-11-15T12:43:59;99948.47;;;18.25;55.50
15193;BME280;7697;51.630;7.484;2022-11-15T12:49:10;99945.56;;;18.47;53.87
15193;BME280;7697;51.630;7.484;2022-11-15T12:59:53;99941.28;;;18.56;51.52
15193;BME280;7697;51.630;7.484;2022-11-15T13:10:36;99906.16;;;18.53;51.52
15193;BME280;7697;51.630;7.484;2022-11-15T13:15:56;99906.16;;;18.48;52.05
15193;BME280;7697;51.630;7.484;2022-11-15T13:21:00;99897.56;;;18.46;53.55
15193;BME280;7697;51.630;7.484;2022-11-15T13:26:22;99892.47;;;18.54;53.47
15193;BME280;7697;51.630;7.484;2022-11-15T13:31:28;99878.84;;;18.61;53.59
15193;BME280;7697;51.630;7.484;2022-11-15T13:36:32;99863.28;;;18.58;54.15
15193;BME280;7697;51.630;7.484;2022-11-15T13:41:36;99859.22;;;18.70;54.90
15193;BME280;7697;51.630;7.484;2022-11-15T13:46:47;99859.22;;;18.70;53.58
15193;BME280;7697;51.630;7.484;2022-11-15T13:51:50;99853.31;;;18.38;53.49
15193;BME280;7697;51.630;7.484;2022-11-15T13:56:57;99846.88;;;18.19;55.42
15193;BME280;7697;51.630;7.484;2022-11-15T14:02:11;99849.56;;;18.04;55.38
15193;BME280;7697;51.630;7.484;2022-11-15T14:07:17;99841.72;;;17.82;55.98
15193;BME280;7697;51.630;7.484;2022-11-15T14:12:23;99840.81;;;17.56;56.51
15193;BME280;7697;51.630;7.484;2022-11-15T14:17:37;99816.09;;;17.29;56.48
15193;BME280;7697;51.630;7.484;2022-11-15T14:22:51;99818.97;;;17.07;57.07
15193;BME280;7697;51.630;7.484;2022-11-15T14:28:14;99818.09;;;16.96;58.33
15193;BME280;7697;51.630;7.484;2022-11-15T14:33:23;99812.19;;;16.94;58.86
15193;BME280;7697;51.630;7.484;2022-11-15T14:38:27;99798.78;;;16.84;59.76
15193;BME280;7697;51.630;7.484;2022-11-15T14:43:29;99784.81;;;16.72;60.17
15193;BME280;7697;51.630;7.484;2022-11-15T14:48:32;99771.41;;;16.67;60.22
15193;BME280;7697;51.630;7.484;2022-11-15T14:53:33;99761.16;;;16.59;60.89
15193;BME280;7697;51.630;7.484;2022-11-15T14:58:35;99749.34;;;16.49;61.20
15193;BME280;7697;51.630;7.484;2022-11-15T15:03:38;99741.00;;;16.41;61.69
15193;BME280;7697;51.630;7.484;2022-11-15T15:08:40;99726.50;;;16.32;62.15
15193;BME280;7697;51.630;7.484;2022-11-15T15:13:43;99726.44;;;16.22;62.18
15193;BME280;7697;51.630;7.484;2022-11-15T15:18:46;99724.84;;;16.21;62.37
15193;BME280;7697;51.630;7.484;2022-11-15T15:23:48;99717.34;;;16.18;63.01
15193;BME280;7697;51.630;7.484;2022-11-15T15:28:50;99711.16;;;16.12;63.23
15193;BME280;7697;51.630;7.484;2022-11-15T15:33:53;99706.84;;;16.06;63.75
15193;BME280;7697;51.630;7.484;2022-11-15T15:38:55;99701.97;;;15.98;63.81
15193;BME280;7697;51.630;7.484;2022-11-15T15:43:56;99695.25;;;15.90;64.15
15193;BME280;7697;51.630;7.484;2022-11-15T15:48:59;99696.78;;;15.81;64.56
15193;BME280;7697;51.630;7.484;2022-11-15T15:54:01;99678.03;;;15.76;64.92
15193;BME280;7697;51.630;7.484;2022-11-15T15:59:03;99682.03;;;15.73;65.15
15193;BME280;7697;51.630;7.484;2022-11-15T16:04:06;99670.81;;;15.71;65.69
15193;BME280;7697;51.630;7.484;2022-11-15T16:09:09;99663.25;;;15.63;65.44
15193;BME280;7697;51.630;7.484;2022-11-15T16:14:13;99655.72;;;15.55;65.58
15193;BME280;7697;51.630;7.484;2022-11-15T16:19:16;99651.09;;;15.51;66.16
15193;BME280;7697;51.630;7.484;2022-11-15T16:24:18;99648.66;;;15.44;66.71
15193;BME280;7697;51.630;7.484;2022-11-15T16:29:20;99654.25;;;15.43;66.81
15193;BME280;7697;51.630;7.484;2022-11-15T16:34:23;99643.00;;;15.40;67.09
15193;BME280;7697;51.630;7.484;2022-11-15T16:39:25;99633.38;;;15.34;67.73
15193;BME280;7697;51.630;7.484;2022-11-15T16:44:30;99630.91;;;15.28;67.72
15193;BME280;7697;51.630;7.484;2022-11-15T16:49:33;99630.31;;;15.21;67.96
15193;BME280;7697;51.630;7.484;2022-11-15T16:54:34;99623.06;;;15.16;68.29
15193;BME280;7697;51.630;7.484;2022-11-15T16:59:36;99618.22;;;15.13;68.41
15193;BME280;7697;51.630;7.484;2022-11-15T17:04:39;99629.41;;;15.10;68.55
15193;BME280;7697;51.630;7.484;2022-11-15T17:09:41;99617.38;;;15.08;68.91
15193;BME280;7697;51.630;7.484;2022-11-15T17:14:42;99613.06;;;15.01;69.28
15193;BME280;7697;51.630;7.484;2022-11-15T17:19:46;99610.38;;;15.01;69.65
15193;BME280;7697;51.630;7.484;2022-11-15T17:24:48;99605.31;;;15.00;69.58
15193;BME280;7697;51.630;7.484;2022-11-15T17:29:50;99595.94;;;14.97;69.86
15193;BME280;7697;51.630;7.484;2022-11-15T17:34:53;99598.59;;;14.97;70.48
15193;BME280;7697;51.630;7.484;2022-11-15T17:39:55;99584.69;;;14.90;70.22
15193;BME280;7697;51.630;7.484;2022-11-15T17:44:56;99595.84;;;14.87;70.39
15193;BME280;7697;51.630;7.484;2022-11-15T17:49:59;99597.44;;;14.88;70.53
15193;BME280;7697;51.630;7.484;2022-11-15T17:55:01;99588.34;;;14.84;70.78
15193;BME280;7697;51.630;7.484;2022-11-15T18:00:04;99600.56;;;14.80;70.94
15193;BME280;7697;51.630;7.484;2022-11-15T18:05:07;99586.69;;;14.78;71.42
15193;BME280;7697;51.630;7.484;2022-11-15T18:10:09;99584.53;;;14.75;71.35
15193;BME280;7697;51.630;7.484;2022-11-15T18:15:11;99575.91;;;14.68;71.78
15193;BME280;7697;51.630;7.484;2022-11-15T18:20:14;99584.97;;;14.67;71.98
15193;BME280;7697;51.630;7.484;2022-11-15T18:25:16;99569.53;;;14.69;72.02
15193;BME280;7697;51.630;7.484;2022-11-15T18:30:18;99571.94;;;14.71;72.08
15193;BME280;7697;51.630;7.484;2022-11-15T18:35:21;99571.13;;;14.70;72.68
15193;BME280;7697;51.630;7.484;2022-11-15T18:40:23;99569.53;;;14.69;72.95
15193;BME280;7697;51.630;7.484;2022-11-15T18:45:24;99560.19;;;14.67;73.01
15193;BME280;7697;51.630;7.484;2022-11-15T18:50:27;99551.63;;;14.64;73.08
15193;BME280;7697;51.630;7.484;2022-11-15T18:55:29;99543.06;;;14.62;73.48
15193;BME280;7697;51.630;7.484;2022-11-15T19:00:31;99555.91;;;14.66;73.47
15193;BME280;7697;51.630;7.484;2022-11-15T19:05:34;99551.09;;;14.68;73.86
15193;BME280;7697;51.630;7.484;2022-11-15T19:10:36;99550.88;;;14.69;73.71
15193;BME280;7697;51.630;7.484;2022-11-15T19:15:37;99543.69;;;14.70;74.27
15193;BME280;7697;51.630;7.484;2022-11-15T19:20:40;99532.53;;;14.73;75.11
15193;BME280;7697;51.630;7.484;2022-11-15T19:25:42;99523.72;;;14.72;74.98
15193;BME280;7697;51.630;7.484;2022-11-15T19:30:44;99525.88;;;14.75;75.67
15193;BME280;7697;51.630;7.484;2022-11-15T19:35:47;99515.22;;;14.75;75.53
15193;BME280;7697;51.630;7.484;2022-11-15T19:40:48;99513.38;;;14.76;76.43
15193;BME280;7697;51.630;7.484;2022-11-15T19:45:51;99504.03;;;14.78;76.83
15193;BME280;7697;51.630;7.484;2022-11-15T19:50:59;99503.78;;;14.80;77.17
15193;BME280;7697;51.630;7.484;2022-11-15T19:56:03;99507.25;;;14.80;77.45
15193;BME280;7697;51.630;7.484;2022-11-15T20:01:07;99491.03;;;14.82;77.87
15193;BME280;7697;51.630;7.484;2022-11-15T20:06:16;99494.50;;;14.82;77.58
15193;BME280;7697;51.630;7.484;2022-11-15T20:11:18;99485.44;;;14.83;78.03
15193;BME280;7697;51.630;7.484;2022-11-15T20:16:21;99477.97;;;14.85;77.97
15193;BME280;7697;51.630;7.484;2022-11-15T20:21:24;99485.97;;;14.85;78.13
15193;BME280;7697;51.630;7.484;2022-11-15T20:26:26;99483.84;;;14.82;78.18
15193;BME280;7697;51.630;7.484;2022-11-15T20:31:29;99488.59;;;14.80;78.56
15193;BME280;7697;51.630;7.484;2022-11-15T20:36:32;99480.06;;;14.78;78.58
15193;BME280;7697;51.630;7.484;2022-11-15T20:41:34;99475.78;;;14.77;79.15
15193;BME280;7697;51.630;7.484;2022-11-15T20:46:35;99469.34;;;14.73;79.11
15193;BME280;7697;51.630;7.484;2022-11-15T20:51:38;99464.53;;;14.70;79.44
15193;BME280;7697;51.630;7.484;2022-11-15T20:56:40;99452.50;;;14.68;79.98
15193;BME280;7697;51.630;7.484;2022-11-15T21:01:42;99446.34;;;14.62;80.06
15193;BME280;7697;51.630;7.484;2022-11-15T21:06:47;99445.50;;;14.56;80.69
15193;BME280;7697;51.630;7.484;2022-11-15T21:11:49;99441.16;;;14.50;81.66
15193;BME280;7697;51.630;7.484;2022-11-15T21:17:08;99439.81;;;14.48;82.10
15193;BME280;7697;51.630;7.484;2022-11-15T21:22:13;99433.13;;;14.45;82.36
15193;BME280;7697;51.630;7.484;2022-11-15T21:27:14;99428.84;;;14.44;82.47
15193;BME280;7697;51.630;7.484;2022-11-15T21:32:18;99414.97;;;14.42;82.63
15193;BME280;7697;51.630;7.484;2022-11-15T21:37:21;99420.03;;;14.39;82.55
15193;BME280;7697;51.630;7.484;2022-11-15T21:42:23;99420.03;;;14.39;83.19
15193;BME280;7697;51.630;7.484;2022-11-15T21:47:24;99416.78;;;14.37;83.07
15193;BME280;7697;51.630;7.484;2022-11-15T21:52:27;99403.47;;;14.37;83.25
15193;BME280;7697;51.630;7.484;2022-11-15T21:57:29;99398.38;;;14.35;83.30
15193;BME280;7697;51.630;7.484;2022-11-15T22:02:31;99398.13;;;14.37;83.10
15193;BME280;7697;51.630;7.484;2022-11-15T22:07:34;99395.72;;;14.35;83.65
15193;BME280;7697;51.630;7.484;2022-11-15T22:12:35;99394.09;;;14.34;83.54
15193;BME280;7697;51.630;7.484;2022-11-15T22:17:37;99395.97;;;14.34;83.57
15193;BME280;7697;51.630;7.484;2022-11-15T22:23:01;99393.53;;;14.32;83.46
15193;BME280;7697;51.630;7.484;2022-11-15T22:28:03;99390.84;;;14.27;84.04
15193;BME280;7697;51.630;7.484;2022-11-15T22:33:05;99376.97;;;14.25;84.51
15193;BME280;7697;51.630;7.484;2022-11-15T22:38:09;99375.88;;;14.21;84.72
15193;BME280;7697;51.630;7.484;2022-11-15T22:43:12;99369.75;;;14.20;85.09
15193;BME280;7697;51.630;7.484;2022-11-15T22:48:15;99367.84;;;14.16;85.79
15193;BME280;7697;51.630;7.484;2022-11-15T22:53:18;99361.66;;;14.10;86.32
15193;BME280;7697;51.630;7.484;2022-11-15T22:58:21;99361.34;;;14.07;87.02
15193;BME280;7697;51.630;7.484;2022-11-15T23:03:24;99349.09;;;14.06;86.71
15193;BME280;7697;51.630;7.484;2022-11-15T23:08:28;99344.06;;;14.04;87.61
15193;BME280;7697;51.630;7.484;2022-11-15T23:13:31;99336.06;;;14.04;87.18
15193;BME280;7697;51.630;7.484;2022-11-15T23:18:33;99323.81;;;14.03;87.22
15193;BME280;7697;51.630;7.484;2022-11-15T23:23:37;99329.06;;;13.98;88.49
15193;BME280;7697;51.630;7.484;2022-11-15T23:28:39;99326.38;;;13.93;88.99
15193;BME280;7697;51.630;7.484;2022-11-15T23:33:41;99327.09;;;13.88;89.15
15193;BME280;7697;51.630;7.484;2022-11-15T23:38:59;99327.88;;;13.84;89.72
15193;BME280;7697;51.630;7.484;2022-11-15T23:44:03;99321.69;;;13.78;90.65
15193;BME280;7697;51.630;7.484;2022-11-15T23:49:05;99316.56;;;13.72;91.28
15193;BME280;7697;51.630;7.484;2022-11-15T23:54:08;99309.63;;;13.71;91.59
15193;BME280;7697;51.630;7.484;2022-11-15T23:59:10;99310.88;;;13.63;92.16
